Plainfield, IA (50666)

2:52 PM CST on November 20, 2014 (GMT -0600)
Wartburg College Observatory | Change Station
CLOSE
Current Station
Personal Weather Station
Location: Waverly, IA
Elevation: 928 ft
Nearby Weather Stations

Elev 928 ft 42.73 °N, 92.49 °W | Updated 8 seconds ago

Clear
Clear
21.7 °F
Feels Like 9 °F
N
14.0
Wind Variable Wind from NW
Gusts 14.0 mph

Today
High -- | Low -- °F
--% Chance of Precip.
Yesterday
High -- | Low -- °F
Precip. -- in
7:08 AM 4:42 PM
Waning Crescent, 3% visible
Pressure 30.17 in
Visibility 10.0 miles
Clouds Clear
Windchill 9 °F
Dew Point 12 °F
Humidity 67%
Rainfall 0.00 in
Snow Depth Not available.
UV 0.8 out of 12
Pollen .10 out of 12
Air Quality Not available.
Flu Activity Not available.
METAR KCCY 202035Z AUTO 30012G19KT 10SM CLR M07/M14 A3017 RMK AO2

More Conditions Fewer Conditions

Pressure 30.17 in
Visibility 10.0 miles
Clouds Clear
Windchill 9 °F
Dew Point 12 °F
Humidity 67%
Rainfall 0.00 in
Snow Depth Not available.
UV 0.8 out of 12
Pollen .10 out of 12
Air Quality Not available.
Flu Activity Not available.
METAR KCCY 202035Z AUTO 30012G19KT 10SM CLR M07/M14 A3017 RMK AO2

More Conditions Fewer Conditions

10-Day Weather Forecast

Almanac

Astronomy

Nov. 20, 2014 Rise Set
Actual Time
Civil Twilight
Nautical Twilight
Astronomical Twilight
Moon
Length of Visible Light
Length of Day
Tomorrow will be .
, % of the Moon is Illuminated

Today's Extremes

State Highs State Lows

Community

WunderPhotos

Upload Photos

1,772,513 photos uploaded!

WunderBlogs® & News

Nearby

Air Quality

  Air Quality AQ Index Pollutant
Not available.

Snow Depth

Station Depth Elevation

Earthquake Activity

City Distance Mag. Time & Date
Minimum magnitude displayed is 2.5.

Coastal Water Temperatures

Place Temperature

Nearby Weather Stations